Flight Track Log - Related Links

Times and Time Zones

All times are in EDT time to prevent confusion due to time zone crossing. See the SWA2003 flight status page for this flight to view local times or setup timezone preferences in your user account.

Time Position Orientation Groundspeed Altitude Reporting Facility
EDT Latitude Longitude Course Direction KTS MPH feet Rate Location/Type
Sat 08:08:39 PM 39.3667 -94.7667 311° West 217 250 3,200  Level Kansas City TRACON
Sat 08:09:09 PM 39.3731 -94.7908 289° West 242 278 3,500 2,308 Climbing Kansas City Center
Sat 08:10:10 PM 39.3656 -94.9011 265° West 278 320 6,700 3,171 Climbing Kansas City Center
Sat 08:11:12 PM 39.3617 -95.0006 267° West 290 334 10,000 2,780 Climbing Kansas City Center
Sat 08:12:13 PM 39.3542 -95.1322 266° West 347 399 12,400 2,607 Climbing Kansas City Center
Sat 08:13:14 PM 39.3489 -95.2711 267° West 370 426 15,300 2,754 Climbing Kansas City Center
Sat 08:14:15 PM 39.3428 -95.4067 267° West 381 438 18,000 2,459 Climbing Kansas City Center
Sat 08:15:16 PM 39.3361 -95.5369 266° West 388 447 20,300 2,213 Climbing Kansas City Center
Sat 08:16:17 PM 39.3297 -95.6711 267° West 392 451 22,500 2,195 Climbing Kansas City Center
Sat 08:17:19 PM 39.3214 -95.8322 266° West 402 463 24,800 2,098 Climbing Kansas City Center
Sat 08:18:20 PM 39.3139 -95.9719 266° West 407 468 26,800 2,115 Climbing Kansas City Center
Sat 08:19:21 PM 39.3044 -96.1344 266° West 407 468 29,100 1,967 Climbing Kansas City Center
Sat 08:20:22 PM 39.3033 -96.2689 269° West 400 460 30,800 1,574 Climbing Kansas City Center
Sat 08:21:23 PM 39.3039 -96.4139 270° West 403 464 32,300 1,561 Climbing Kansas City Center
Sat 08:22:25 PM 39.3056 -96.5708 271° West 402 463 34,000 829 Climbing Kansas City Center
Sat 08:23:26 PM 39.3061 -96.7036 270° West 392 451 34,000  Level Kansas City Center
Sat 08:24:27 PM 39.3067 -96.8569 270° West 386 444 34,000  Level Kansas City Center
Sat 08:25:28 PM 39.3058 -96.9889 270° West 384 442 34,000 49 Level Kansas City Center
Sat 08:26:29 PM 39.3061 -97.1203 270° West 384 442 34,100 934 Climbing Kansas City Center
Sat 08:27:30 PM 39.3067 -97.2747 270° West 384 442 35,900 1,317 Climbing Kansas City Center
Sat 08:28:32 PM 39.3064 -97.4061 270° West 383 441 36,800 1,024 Climbing Kansas City Center
Sat 08:29:33 PM 39.3036 -97.5622 269° West 389 448 38,000 590 Climbing Kansas City Center
Sat 08:30:34 PM 39.3031 -97.6994 270° West 382 440 38,000  Level Kansas City Center
Sat 08:31:35 PM 39.3017 -97.8333 269° West 375 432 38,000  Level Kansas City Center
Sat 08:32:36 PM 39.3022 -97.9711 270° West 373 429 38,000  Level Kansas City Center
Sat 08:33:38 PM 39.3000 -98.1003 269° West 374 430 38,000  Level Kansas City Center
Sat 08:34:39 PM 39.2992 -98.2383 270° West 378 435 38,000  Level Kansas City Center
Sat 08:35:40 PM 39.2958 -98.3761 268° West 382 440 38,000  Level Kansas City Center
Sat 08:36:41 PM 39.2950 -98.5119 270° West 379 436 38,000  Level Kansas City Center
Sat 08:37:42 PM 39.2958 -98.6400 271° West 371 427 38,000  Level Kansas City Center
Sat 08:38:43 PM 39.2719 -98.7889 258° West 380 437 38,000  Level Kansas City Center
Sat 08:39:44 PM 39.2481 -98.9211 257° West 382 440 38,000  Level Kansas City Center
Sat 08:40:45 PM 39.2231 -99.0553 257° West 385 443 38,000  Level Kansas City Center
Sat 08:41:28 PM 39.2044 -99.1614 257° West 380 437 38,000  Level Denver Center
Sat 08:42:30 PM 39.1811 -99.2886 257° West 375 432 38,000  Level Denver Center
Sat 08:43:32 PM 39.1592 -99.4156 257° West 379 436 38,000  Level Denver Center
Sat 08:44:33 PM 39.1328 -99.5589 257° West 371 427 38,000  Level Denver Center
Sat 08:45:35 PM 39.1094 -99.6844 257° West 376 433 38,000  Level Denver Center
Sat 08:46:37 PM 39.0836 -99.8294 257° West 373 429 38,000  Level Denver Center
Sat 08:47:38 PM 39.0600 -99.9536 256° West 375 432 38,000  Level Denver Center
Sat 08:48:40 PM 39.0367 -100.0797 257° West 377 434 38,000  Level Denver Center
Sat 08:49:41 PM 39.0100 -100.2272 257° West 379 436 38,000  Level Denver Center
Sat 08:50:43 PM 38.9853 -100.3533 256° West 381 438 38,000  Level Denver Center
Sat 08:51:45 PM 38.9575 -100.4978 256° West 376 433 38,000  Level Denver Center
Sat 08:52:46 PM 38.9333 -100.6253 256° West 382 440 38,000  Level Denver Center
Sat 08:53:48 PM 38.9058 -100.7711 256° West 379 436 38,000  Level Denver Center
Sat 08:54:49 PM 38.8814 -100.8936 256° West 375 432 38,000  Level Denver Center
Sat 08:55:51 PM 38.8575 -101.0183 256° West 375 432 38,000  Level Denver Center
Sat 08:56:52 PM 38.8297 -101.1611 256° West 373 429 38,000  Level Denver Center
Sat 08:57:54 PM 38.8047 -101.2839 255° West 373 429 38,000  Level Denver Center
Sat 08:58:55 PM 38.7767 -101.4286 256° West 374 430 38,000  Level Denver Center
Sat 08:59:57 PM 38.7522 -101.5508 256° West 372 428 38,000  Level Denver Center
Sat 09:00:58 PM 38.7161 -101.6947 252° West 379 436 38,000  Level Denver Center
Sat 09:02:00 PM 38.6600 -101.8036 237° Southwest 384 442 38,000  Level Denver Center
Sat 09:03:01 PM 38.6033 -101.9128 236° Southwest 385 443 38,000  Level Denver Center
Sat 09:04:03 PM 38.5431 -102.0425 239° Southwest 381 438 38,000  Level Denver Center
Sat 09:05:04 PM 38.4894 -102.1547 239° Southwest 385 443 38,000  Level Denver Center
Sat 09:06:06 PM 38.4286 -102.2861 239° Southwest 386 444 38,000  Level Denver Center
Sat 09:07:07 PM 38.3756 -102.3981 239° Southwest 385 443 38,000  Level Denver Center
Sat 09:08:09 PM 38.3131 -102.5275 238° Southwest 385 443 38,000  Level Denver Center
Sat 09:09:10 PM 38.2611 -102.6389 239° Southwest 385 443 38,000  Level Denver Center
Sat 09:10:12 PM 38.2097 -102.7508 240° Southwest 384 442 38,000  Level Denver Center
Sat 09:11:13 PM 38.1519 -102.8800 240° Southwest 379 436 38,000  Level Denver Center
Sat 09:12:15 PM 38.1006 -102.9922 240° Southwest 382 440 38,000  Level Denver Center
Sat 09:13:16 PM 38.0442 -103.1200 241° Southwest 373 429 38,000  Level Denver Center
Sat 09:14:18 PM 37.9919 -103.2400 241° Southwest 377 434 38,000  Level Denver Center
Sat 09:15:19 PM 37.9472 -103.3514 243° Southwest 373 429 38,000  Level Denver Center
Sat 09:16:21 PM 37.8919 -103.4842 242° Southwest 383 441 38,000  Level Denver Center
Sat 09:17:22 PM 37.8453 -103.5997 243° Southwest 386 444 38,000  Level Denver Center
Sat 09:18:24 PM 37.7975 -103.7150 242° Southwest 387 445 38,000  Level Denver Center
Sat 09:19:26 PM 37.7428 -103.8511 243° Southwest 390 449 38,000  Level Denver Center
Sat 09:20:27 PM 37.6992 -103.9697 245° Southwest 392 451 38,000  Level Denver Center
Sat 09:21:28 PM 37.6503 -104.1083 246° West 395 455 38,000  Level Denver Center
Sat 09:22:30 PM 37.6281 -104.2342 257° West 389 448 38,000  Level Denver Center
Sat 09:23:31 PM 37.6031 -104.3819 258° West 389 448 38,000  Level Denver Center
Sat 09:24:33 PM 37.5817 -104.5078 258° West 385 443 38,000  Level Denver Center
Sat 09:25:34 PM 37.5553 -104.6536 257° West 383 441 38,000  Level Denver Center
Sat 09:26:36 PM 37.5339 -104.7789 258° West 382 440 38,000  Level Denver Center
Sat 09:27:37 PM 37.5114 -104.9072 258° West 390 449 38,000  Level Denver Center
Sat 09:28:39 PM 37.4847 -105.0581 257° West 394 453 38,000  Level Denver Center
Sat 09:29:40 PM 37.4594 -105.1953 257° West 397 457 38,000  Level Denver Center
Sat 09:30:42 PM 37.4367 -105.3247 258° West 395 455 38,000  Level Denver Center
Sat 09:31:44 PM 37.4097 -105.4744 257° West 394 453 38,000  Level Denver Center
Sat 09:32:45 PM 37.3839 -105.6008 256° West 391 450 38,000  Level Denver Center
Sat 09:33:47 PM 37.3578 -105.7500 258° West 391 450 38,000  Level Denver Center
Sat 09:34:48 PM 37.3353 -105.8764 257° West 389 448 38,000  Level Denver Center
Sat 09:35:50 PM 37.3083 -106.0022 255° West 390 449 38,000  Level Denver Center
Sat 09:36:51 PM 37.2833 -106.1514 258° West 390 449 38,000  Level Denver Center
Sat 09:37:53 PM 37.2583 -106.2794 256° West 393 452 38,000  Level Denver Center
Sat 09:38:55 PM 37.2281 -106.4319 256° West 403 464 38,000  Level Denver Center
Sat 09:39:56 PM 37.2047 -106.5658 258° West 409 471 38,000  Level Denver Center
Sat 09:40:58 PM 37.1725 -106.7214 255° West 413 475 38,000  Level Denver Center
Sat 09:41:59 PM 37.1472 -106.8553 257° West 414 476 38,000  Level Denver Center
Sat 09:43:01 PM 37.1211 -106.9900 256° West 416 479 38,000  Level Denver Center
Sat 09:44:02 PM 37.0897 -107.1469 256° West 416 479 38,000  Level Denver Center
Sat 09:45:04 PM 37.0628 -107.2811 256° West 417 480 38,000  Level Denver Center
Sat 09:46:05 PM 37.0325 -107.4375 256° West 416 479 38,000  Level Denver Center
Sat 09:47:07 PM 37.0317 -107.5706 270° West 405 466 38,000  Level Denver Center
Sat 09:48:08 PM 37.0772 -107.6994 294° West 432 497 38,000  Level Denver Center
Sat 09:49:10 PM 37.1742 -107.8200 315° West 441 507 38,000  Level Denver Center
Sat 09:50:11 PM 37.2614 -107.9186 318° Northwest 440 506 38,000  Level Denver Center
Sat 09:51:12 PM 37.3217 -108.0658 297° West 425 489 38,000  Level Denver Center
Sat 09:52:14 PM 37.3075 -108.1961 262° West 402 463 38,000  Level Denver Center
Sat 09:53:15 PM 37.2636 -108.3372 249° West 393 452 38,000  Level Denver Center
Sat 09:54:17 PM 37.2283 -108.4628 251° West 396 456 38,000  Level Denver Center
Sat 09:55:18 PM 37.1936 -108.5869 251° West 396 456 38,000  Level Denver Center
Sat 09:56:20 PM 37.1506 -108.7317 250° West 396 456 38,000  Level Denver Center
Sat 09:57:21 PM 37.1144 -108.8575 250° West 399 459 38,000  Level Denver Center
Sat 09:58:23 PM 37.0711 -109.0033 250° West 401 461 38,000  Level Denver Center
Sat 09:59:24 PM 37.0342 -109.1294 250° West 403 464 38,000  Level Denver Center
Sat 10:00:25 PM 36.9906 -109.2769 250° West 405 466 38,000  Level Denver Center
Sat 10:01:27 PM 36.9533 -109.4028 250° West 405 466 38,000  Level Denver Center
Sat 10:02:28 PM 36.9158 -109.5297 250° West 407 468 38,000  Level Denver Center
Sat 10:03:30 PM 36.8717 -109.6767 249° West 405 466 38,000  Level Denver Center
Sat 10:04:31 PM 36.8336 -109.8008 249° West 403 464 38,000  Level Denver Center
Sat 10:05:33 PM 36.7903 -109.9464 250° West 402 463 38,000  Level Denver Center
Sat 10:06:34 PM 36.7522 -110.0689 249° West 397 457 38,000  Level Denver Center
Sat 10:07:35 PM 36.7111 -110.2028 249° West 394 453 38,000  Level Denver Center
Sat 10:08:37 PM 36.6717 -110.3297 249° West 393 452 38,000  Level Denver Center
Sat 10:09:38 PM 36.6331 -110.4542 249° West 388 447 38,000  Level Denver Center
Sat 10:10:40 PM 36.5939 -110.5831 249° West 396 456 38,000  Level Denver Center
Sat 10:11:41 PM 36.5547 -110.7114 249° West 397 457 38,000  Level Denver Center
Sat 10:12:42 PM 36.5139 -110.8392 248° West 397 457 38,000  Level Denver Center
Sat 10:13:44 PM 36.4731 -110.9683 249° West 400 460 38,000  Level Denver Center
Sat 10:14:45 PM 36.4333 -111.0947 249° West 396 456 38,000  Level Denver Center
Sat 10:15:46 PM 36.3850 -111.2456 248° West 393 452 38,000  Level Denver Center
Sat 10:16:48 PM 36.3450 -111.3706 248° West 391 450 38,000  Level Denver Center
Sat 10:17:49 PM 36.3050 -111.4947 248° West 389 448 38,000  Level Denver Center
Sat 10:18:50 PM 36.2647 -111.6208 248° West 392 451 38,000  Level Denver Center
Sat 10:19:37 PM 36.2311 -111.7206 247° West 389 448 38,000  Level Los Angeles Center
Sat 10:20:38 PM 36.1839 -111.8431 245° Southwest 392 451 38,000  Level Los Angeles Center
Sat 10:21:40 PM 36.1392 -111.9692 246° West 399 459 38,000  Level Los Angeles Center
Sat 10:22:41 PM 36.0931 -112.0933 245° Southwest 399 459 38,000  Level Los Angeles Center
Sat 10:23:43 PM 36.0475 -112.2172 246° West 401 461 38,000  Level Los Angeles Center
Sat 10:24:44 PM 36.0025 -112.3444 246° West 399 459 38,000  Level Los Angeles Center
Sat 10:25:46 PM 35.9558 -112.4692 245° Southwest 399 459 38,000  Level Los Angeles Center
Sat 10:26:47 PM 35.9022 -112.6147 246° West 402 463 38,000  Level Los Angeles Center
Sat 10:27:49 PM 35.8561 -112.7367 245° Southwest 399 459 38,000  Level Los Angeles Center
Sat 10:28:50 PM 35.8114 -112.8572 245° Southwest 394 453 38,000  Level Los Angeles Center
Sat 10:29:52 PM 35.7658 -112.9783 245° Southwest 395 455 38,000  Level Los Angeles Center
Sat 10:30:53 PM 35.7211 -113.0983 245° Southwest 393 452 38,000  Level Los Angeles Center
Sat 10:31:55 PM 35.6717 -113.2272 245° Southwest 391 450 38,000  Level Los Angeles Center
Sat 10:32:56 PM 35.6214 -113.3608 245° Southwest 392 451 38,000  Level Los Angeles Center
Sat 10:33:57 PM 35.5758 -113.4797 245° Southwest 389 448 38,000  Level Los Angeles Center
Sat 10:34:59 PM 35.5300 -113.6000 245° Southwest 392 451 38,000  Level Los Angeles Center
Sat 10:36:00 PM 35.4836 -113.7197 245° Southwest 393 452 38,000  Level Los Angeles Center
Sat 10:37:02 PM 35.4375 -113.8392 245° Southwest 391 450 38,000  Level Los Angeles Center
Sat 10:38:03 PM 35.3800 -113.9800 243° Southwest 396 456 38,000  Level Los Angeles Center
Sat 10:39:05 PM 35.3342 -114.1006 245° Southwest 394 453 38,000  Level Los Angeles Center
Sat 10:40:06 PM 35.2864 -114.2208 244° Southwest 391 450 38,000  Level Los Angeles Center
Sat 10:41:07 PM 35.2425 -114.3367 245° Southwest 381 438 38,000  Level Los Angeles Center
Sat 10:42:09 PM 35.1953 -114.4567 244° Southwest 386 444 38,000  Level Los Angeles Center
Sat 10:43:10 PM 35.1481 -114.5767 244° Southwest 389 448 38,000  Level Los Angeles Center
Sat 10:44:12 PM 35.1000 -114.6986 244° Southwest 395 455 38,000  Level Los Angeles Center
Sat 10:45:13 PM 35.0517 -114.8183 244° Southwest 393 452 38,000  Level Los Angeles Center
Sat 10:46:14 PM 34.9942 -114.9628 244° Southwest 393 452 38,000  Level Los Angeles Center
Sat 10:47:16 PM 34.9464 -115.0819 244° Southwest 391 450 38,000 -98 Level Los Angeles Center
Sat 10:48:17 PM 34.8989 -115.1989 244° Southwest 388 447 37,800 -590 Descending Los Angeles Center
Sat 10:49:18 PM 34.8508 -115.3142 243° Southwest 383 441 36,800 -878 Descending Los Angeles Center
Sat 10:50:20 PM 34.8014 -115.4342 243° Southwest 389 448 36,000 -390 Descending Los Angeles Center
Sat 10:51:21 PM 34.7528 -115.5564 244° Southwest 396 456 36,000  Level Los Angeles Center
Sat 10:52:22 PM 34.7053 -115.6792 245° Southwest 402 463 36,000  Level Los Angeles Center
Sat 10:53:24 PM 34.6567 -115.7992 244° Southwest 398 458 36,000  Level Los Angeles Center
Sat 10:54:25 PM 34.6078 -115.9172 243° Southwest 395 455 36,000  Level Los Angeles Center
Sat 10:55:26 PM 34.5586 -116.0375 244° Southwest 397 457 36,000  Level Los Angeles Center
Sat 10:56:28 PM 34.5083 -116.1567 243° Southwest 396 456 36,000 -341 Level Los Angeles Center
Sat 10:57:29 PM 34.4583 -116.2750 243° Southwest 396 456 35,300 -2,066 Descending Los Angeles Center
Sat 10:58:30 PM 34.4000 -116.4167 244° Southwest 393 452 31,800 -2,756 Descending Los Angeles Center
Sat 10:59:44 PM 34.3381 -116.5656 243° Southwest 409 471 29,100 -2,222 Descending Los Angeles Center
Sat 11:00:45 PM 34.2867 -116.6861 243° Southwest 404 465 26,800 -2,195 Descending Los Angeles Center
Sat 11:01:47 PM 34.2372 -116.8036 243° Southwest 395 455 24,600 -2,098 Descending Los Angeles Center
Sat 11:02:48 PM 34.1894 -116.9158 243° Southwest 379 436 22,500 -2,016 Descending Los Angeles Center
Sat 11:03:49 PM 34.1436 -117.0264 243° Southwest 368 423 20,500 -2,139 Descending Los Angeles Center
Sat 11:04:29 PM 34.1000 -117.1167 240° Southwest 356 410 18,900 -2,280 Descending Southern California TRACON
Sat 11:05:29 PM 34.0667 -117.2167 248° West 352 405 16,700 -2,100 Descending Southern California TRACON
Sat 11:06:29 PM 34.0333 -117.3333 251° West 343 395 14,700 -2,000 Descending Southern California TRACON
Sat 11:07:29 PM 34.0333 -117.4333 270° West 332 382 12,700 -1,900 Descending Southern California TRACON
Sat 11:08:29 PM 34.0333 -117.5500 270° West 309 356 10,900 -1,133 Descending Southern California TRACON
Sat 11:10:29 PM 34.0167 -117.7500 264° West 278 320 9,300 -966 Descending Southern California TRACON
Sat 11:11:23 PM 34.0167 -117.8333 270° West 276 318 8,100 -1,263 Descending Southern California TRACON
Sat 11:12:23 PM 34.0000 -117.9333 259° West 274 315 6,900 -1,050 Descending Southern California TRACON
Sat 11:13:23 PM 33.9833 -118.0167 256° West 255 293 6,000 -857 Descending Southern California TRACON
Sat 11:14:29 PM 33.9833 -118.1000 270° West 220 253 5,100 -891 Descending Southern California TRACON
Sat 11:15:04 PM 33.9797 -118.1306 262° West 220 253 4,500 -1,113 Descending Los Angeles Center
Sat 11:16:06 PM 33.9736 -118.1953 264° West 203 234 3,300 -976 Descending Los Angeles Center
Sat 11:17:07 PM 33.9669 -118.2561 262° West 191 220 2,500 -787 Descending Los Angeles Center
Sat 11:18:08 PM 33.9625 -118.3053 264° West 168 193 1,700 -774 Descending Los Angeles Center
Sat 11:19:11 PM 33.9583 -118.3497 264° West 148 170 900 -732 Descending Los Angeles Center
Sat 11:20:11 PM 33.9536 -118.3953 263° West 141 162 200 -700 Descending Los Angeles Center
Sat 11:22:00 PM 33.9333 -118.4000 259° West  Level FlightAware Approximate

Login

Don't have an account? Register now (free) for customized features, flight alerts, and more!